sensor_id;sensor_type;location;lat;lon;timestamp;pressure;altitude;pressure_sealevel;temperature;humidity
76374;BME280;65197;50.164;8.012;2023-04-25T08:37:23;95058.28;;;4.73;100.00
76374;BME280;65197;50.164;8.012;2023-04-25T08:39:48;95063.88;;;5.06;100.00
76374;BME280;65197;50.164;8.012;2023-04-25T08:42:17;95055.78;;;5.45;95.85
76374;BME280;65197;50.164;8.012;2023-04-25T08:44:44;95062.16;;;6.02;89.68
76374;BME280;65197;50.164;8.012;2023-04-25T08:47:10;95056.47;;;6.61;87.41
76374;BME280;65197;50.164;8.012;2023-04-25T08:49:36;95058.38;;;6.12;89.30
76374;BME280;65197;50.164;8.012;2023-04-25T08:52:04;95065.19;;;5.65;92.43
76374;BME280;65197;50.164;8.012;2023-04-25T08:54:31;95064.47;;;5.38;94.49
76374;BME280;65197;50.164;8.012;2023-04-25T08:57:00;95081.53;;;5.33;93.73
76374;BME280;65197;50.164;8.012;2023-04-25T08:59:27;95079.78;;;5.10;92.55
76374;BME280;65197;50.164;8.012;2023-04-25T09:01:52;95083.03;;;5.14;94.56
76374;BME280;65197;50.164;8.012;2023-04-25T09:04:18;95087.13;;;5.18;96.03
76374;BME280;65197;50.164;8.012;2023-04-25T09:06:46;95091.16;;;5.22;95.60
76374;BME280;65197;50.164;8.012;2023-04-25T09:09:11;95097.22;;;5.18;94.74
76374;BME280;65197;50.164;8.012;2023-04-25T09:11:37;95100.16;;;5.05;95.39
76374;BME280;65197;50.164;8.012;2023-04-25T09:14:16;95102.72;;;4.79;95.02
76374;BME280;65197;50.164;8.012;2023-04-25T09:19:27;95104.28;;;5.33;93.47
76374;BME280;65197;50.164;8.012;2023-04-25T09:21:57;95122.56;;;5.65;94.99
76374;BME280;65197;50.164;8.012;2023-04-25T09:24:38;95103.16;;;6.34;87.95
76374;BME280;65197;50.164;8.012;2023-04-25T09:27:05;95110.19;;;7.51;83.39
76374;BME280;65197;50.164;8.012;2023-04-25T09:29:32;95098.28;;;8.29;80.40
76374;BME280;65197;50.164;8.012;2023-04-25T09:34:39;95108.66;;;7.47;75.19
76374;BME280;65197;50.164;8.012;2023-04-25T09:37:06;95113.63;;;7.09;78.15
76374;BME280;65197;50.164;8.012;2023-04-25T09:39:32;95120.19;;;6.73;79.64
76374;BME280;65197;50.164;8.012;2023-04-25T09:41:59;95111.31;;;6.83;78.46
76374;BME280;65197;50.164;8.012;2023-04-25T09:44:24;95124.41;;;6.94;80.59
76374;BME280;65197;50.164;8.012;2023-04-25T09:46:50;95113.91;;;7.63;79.52
76374;BME280;65197;50.164;8.012;2023-04-25T09:49:20;95127.63;;;7.59;76.91
76374;BME280;65197;50.164;8.012;2023-04-25T09:51:56;95126.16;;;7.53;77.01
76374;BME280;65197;50.164;8.012;2023-04-25T09:54:23;95124.50;;;7.73;77.05
76374;BME280;65197;50.164;8.012;2023-04-25T09:56:51;95127.91;;;7.72;76.01
76374;BME280;65197;50.164;8.012;2023-04-25T09:59:20;95123.50;;;7.56;74.62
76374;BME280;65197;50.164;8.012;2023-04-25T10:01:48;95122.91;;;7.31;77.90
76374;BME280;65197;50.164;8.012;2023-04-25T10:04:18;95147.22;;;7.14;78.67
76374;BME280;65197;50.164;8.012;2023-04-25T10:06:45;95129.09;;;7.24;77.29
76374;BME280;65197;50.164;8.012;2023-04-25T10:09:11;95148.09;;;6.93;76.49
76374;BME280;65197;50.164;8.012;2023-04-25T10:11:38;95156.84;;;6.64;78.90
76374;BME280;65197;50.164;8.012;2023-04-25T10:14:04;95152.72;;;6.40;81.15
76374;BME280;65197;50.164;8.012;2023-04-25T10:16:30;95162.03;;;6.39;81.34
76374;BME280;65197;50.164;8.012;2023-04-25T10:18:56;95151.22;;;6.57;82.10
76374;BME280;65197;50.164;8.012;2023-04-25T10:21:22;95153.19;;;6.49;79.93
76374;BME280;65197;50.164;8.012;2023-04-25T10:23:49;95144.78;;;6.03;81.72
76374;BME280;65197;50.164;8.012;2023-04-25T10:26:14;95159.00;;;6.07;82.62
76374;BME280;65197;50.164;8.012;2023-04-25T10:29:00;95173.75;;;6.20;82.49
76374;BME280;65197;50.164;8.012;2023-04-25T10:31:27;95160.59;;;6.32;82.35
76374;BME280;65197;50.164;8.012;2023-04-25T10:33:53;95164.44;;;6.42;82.30
76374;BME280;65197;50.164;8.012;2023-04-25T10:36:20;95171.09;;;6.45;82.07
76374;BME280;65197;50.164;8.012;2023-04-25T10:38:50;95166.81;;;6.69;81.12
76374;BME280;65197;50.164;8.012;2023-04-25T10:41:17;95163.03;;;6.79;80.45
76374;BME280;65197;50.164;8.012;2023-04-25T10:43:44;95152.56;;;7.29;81.41
76374;BME280;65197;50.164;8.012;2023-04-25T11:09:26;95169.16;;;7.15;71.84
76374;BME280;65197;50.164;8.012;2023-04-25T11:11:56;95181.09;;;7.34;73.12
76374;BME280;65197;50.164;8.012;2023-04-25T11:14:22;95193.13;;;7.08;72.46
76374;BME280;65197;50.164;8.012;2023-04-25T11:16:52;95190.78;;;6.82;74.35
76374;BME280;65197;50.164;8.012;2023-04-25T11:19:19;95193.59;;;6.96;69.19
76374;BME280;65197;50.164;8.012;2023-04-25T11:21:44;95201.25;;;7.17;70.92
76374;BME280;65197;50.164;8.012;2023-04-25T11:24:10;95195.94;;;7.23;66.75
76374;BME280;65197;50.164;8.012;2023-04-25T11:26:36;95207.00;;;7.20;64.96
76374;BME280;65197;50.164;8.012;2023-04-25T11:29:02;95199.63;;;6.94;65.90
76374;BME280;65197;50.164;8.012;2023-04-25T11:31:28;95199.38;;;6.78;66.92
76374;BME280;65197;50.164;8.012;2023-04-25T11:33:56;95188.16;;;6.85;67.33
76374;BME280;65197;50.164;8.012;2023-04-25T11:36:25;95212.25;;;6.95;65.82
76374;BME280;65197;50.164;8.012;2023-04-25T11:38:52;95203.91;;;7.13;69.29
76374;BME280;65197;50.164;8.012;2023-04-25T11:41:21;95211.09;;;7.45;66.40
76374;BME280;65197;50.164;8.012;2023-04-25T11:43:47;95197.69;;;7.61;66.11
76374;BME280;65197;50.164;8.012;2023-04-25T11:46:13;95196.41;;;7.92;63.80
76374;BME280;65197;50.164;8.012;2023-04-25T11:48:42;95199.72;;;9.06;61.29
76374;BME280;65197;50.164;8.012;2023-04-25T11:51:08;95191.44;;;10.38;56.02
76374;BME280;65197;50.164;8.012;2023-04-25T11:53:34;95178.13;;;10.96;52.57
76374;BME280;65197;50.164;8.012;2023-04-25T11:55:59;95177.75;;;11.02;52.15
76374;BME280;65197;50.164;8.012;2023-04-25T11:58:25;95185.84;;;10.94;52.69
76374;BME280;65197;50.164;8.012;2023-04-25T12:00:51;95187.75;;;10.28;54.52
76374;BME280;65197;50.164;8.012;2023-04-25T12:03:18;95190.88;;;9.49;55.63
76374;BME280;65197;50.164;8.012;2023-04-25T12:05:44;95192.97;;;9.41;56.88
76374;BME280;65197;50.164;8.012;2023-04-25T12:08:14;95196.09;;;9.11;59.93
76374;BME280;65197;50.164;8.012;2023-04-25T12:10:41;95201.91;;;8.60;59.59
76374;BME280;65197;50.164;8.012;2023-04-25T12:13:37;95215.94;;;8.29;60.22
76374;BME280;65197;50.164;8.012;2023-04-25T12:16:02;95194.06;;;8.46;61.30
76374;BME280;65197;50.164;8.012;2023-04-25T12:18:28;95200.72;;;7.90;61.22
76374;BME280;65197;50.164;8.012;2023-04-25T12:20:53;95213.06;;;7.58;63.12
76374;BME280;65197;50.164;8.012;2023-04-25T12:23:28;95217.50;;;7.33;64.12
76374;BME280;65197;50.164;8.012;2023-04-25T12:25:53;95229.91;;;7.19;65.45
76374;BME280;65197;50.164;8.012;2023-04-25T12:28:21;95229.78;;;7.22;67.63
76374;BME280;65197;50.164;8.012;2023-04-25T12:31:05;95237.53;;;7.39;67.49
76374;BME280;65197;50.164;8.012;2023-04-25T12:33:33;95230.50;;;7.66;66.97
76374;BME280;65197;50.164;8.012;2023-04-25T12:35:59;95218.16;;;7.98;61.27
76374;BME280;65197;50.164;8.012;2023-04-25T12:38:27;95213.19;;;8.15;61.97
76374;BME280;65197;50.164;8.012;2023-04-25T12:40:55;95232.41;;;8.21;61.74
76374;BME280;65197;50.164;8.012;2023-04-25T12:43:20;95226.50;;;7.60;62.92
76374;BME280;65197;50.164;8.012;2023-04-25T12:45:50;95229.91;;;7.19;64.40
76374;BME280;65197;50.164;8.012;2023-04-25T12:48:17;95230.25;;;7.31;65.62
76374;BME280;65197;50.164;8.012;2023-04-25T12:50:42;95232.00;;;8.30;63.00
76374;BME280;65197;50.164;8.012;2023-04-25T12:53:08;95231.63;;;8.39;62.42
76374;BME280;65197;50.164;8.012;2023-04-25T12:55:34;95235.59;;;8.63;61.19
76374;BME280;65197;50.164;8.012;2023-04-25T12:57:59;95224.41;;;8.49;61.13
76374;BME280;65197;50.164;8.012;2023-04-25T13:00:24;95232.00;;;8.30;61.42
76374;BME280;65197;50.164;8.012;2023-04-25T13:02:51;95239.19;;;8.01;58.76
76374;BME280;65197;50.164;8.012;2023-04-25T13:05:17;95228.00;;;8.05;59.39
76374;BME280;65197;50.164;8.012;2023-04-25T13:07:42;95233.50;;;9.09;56.17
76374;BME280;65197;50.164;8.012;2023-04-25T13:10:08;95225.91;;;8.72;55.02
76374;BME280;65197;50.164;8.012;2023-04-25T13:12:33;95234.66;;;9.38;55.48
76374;BME280;65197;50.164;8.012;2023-04-25T13:14:58;95222.59;;;9.59;53.47
76374;BME280;65197;50.164;8.012;2023-04-25T13:17:24;95228.25;;;9.12;52.47
76374;BME280;65197;50.164;8.012;2023-04-25T13:19:49;95241.00;;;9.47;51.61
76374;BME280;65197;50.164;8.012;2023-04-25T13:22:15;95242.44;;;8.99;52.08
76374;BME280;65197;50.164;8.012;2023-04-25T13:24:42;95229.28;;;8.72;53.54
76374;BME280;65197;50.164;8.012;2023-04-25T13:27:07;95243.19;;;8.46;56.59
76374;BME280;65197;50.164;8.012;2023-04-25T13:29:33;95254.13;;;8.28;58.24
76374;BME280;65197;50.164;8.012;2023-04-25T13:32:00;95262.53;;;7.89;58.46
76374;BME280;65197;50.164;8.012;2023-04-25T13:34:26;95251.41;;;7.73;60.45
76374;BME280;65197;50.164;8.012;2023-04-25T13:36:51;95261.97;;;7.42;60.80
76374;BME280;65197;50.164;8.012;2023-04-25T13:39:17;95256.09;;;7.82;60.38
76374;BME280;65197;50.164;8.012;2023-04-25T13:41:42;95248.72;;;8.73;57.96
76374;BME280;65197;50.164;8.012;2023-04-25T13:44:08;95258.34;;;9.22;55.84
76374;BME280;65197;50.164;8.012;2023-04-25T13:46:33;95254.66;;;9.63;53.71
76374;BME280;65197;50.164;8.012;2023-04-25T13:48:58;95250.44;;;9.45;55.67
76374;BME280;65197;50.164;8.012;2023-04-25T13:51:24;95252.09;;;8.92;53.67
76374;BME280;65197;50.164;8.012;2023-04-25T13:53:51;95242.03;;;8.33;57.00
76374;BME280;65197;50.164;8.012;2023-04-25T13:56:16;95260.47;;;8.38;56.70
76374;BME280;65197;50.164;8.012;2023-04-25T13:58:41;95272.38;;;8.36;57.89
76374;BME280;65197;50.164;8.012;2023-04-25T14:01:07;95261.66;;;7.90;54.92
76374;BME280;65197;50.164;8.012;2023-04-25T14:03:32;95264.06;;;7.52;54.83
76374;BME280;65197;50.164;8.012;2023-04-25T14:05:58;95268.00;;;6.95;56.48
76374;BME280;65197;50.164;8.012;2023-04-25T14:08:23;95279.22;;;6.89;58.94
76374;BME280;65197;50.164;8.012;2023-04-25T14:10:48;95280.84;;;6.91;58.47
76374;BME280;65197;50.164;8.012;2023-04-25T14:13:14;95292.41;;;6.76;60.00
76374;BME280;65197;50.164;8.012;2023-04-25T14:15:40;95292.50;;;6.73;60.30
76374;BME280;65197;50.164;8.012;2023-04-25T14:18:05;95292.53;;;7.17;61.53
76374;BME280;65197;50.164;8.012;2023-04-25T14:20:30;95275.72;;;7.56;57.25
76374;BME280;65197;50.164;8.012;2023-04-25T14:22:56;95269.78;;;7.78;55.60
76374;BME280;65197;50.164;8.012;2023-04-25T14:25:24;95270.53;;;8.00;54.37
76374;BME280;65197;50.164;8.012;2023-04-25T14:27:49;95260.03;;;8.28;55.54
76374;BME280;65197;50.164;8.012;2023-04-25T14:30:19;95281.09;;;8.70;53.07
76374;BME280;65197;50.164;8.012;2023-04-25T14:32:44;95289.47;;;8.72;51.99
76374;BME280;65197;50.164;8.012;2023-04-25T14:35:10;95293.44;;;8.39;52.39
76374;BME280;65197;50.164;8.012;2023-04-25T14:37:36;95273.69;;;8.46;53.96
76374;BME280;65197;50.164;8.012;2023-04-25T14:40:01;95289.34;;;8.35;51.85
76374;BME280;65197;50.164;8.012;2023-04-25T14:42:27;95290.16;;;8.36;53.47
76374;BME280;65197;50.164;8.012;2023-04-25T14:44:52;95297.19;;;8.10;52.72
76374;BME280;65197;50.164;8.012;2023-04-25T14:47:17;95298.53;;;8.58;52.37
76374;BME280;65197;50.164;8.012;2023-04-25T14:49:43;95291.28;;;8.70;50.01
76374;BME280;65197;50.164;8.012;2023-04-25T14:52:09;95301.97;;;8.57;50.65
76374;BME280;65197;50.164;8.012;2023-04-25T14:54:34;95303.31;;;8.46;47.36
76374;BME280;65197;50.164;8.012;2023-04-25T14:57:00;95305.53;;;8.53;49.67
76374;BME280;65197;50.164;8.012;2023-04-25T14:59:26;95300.25;;;8.19;51.29
76374;BME280;65197;50.164;8.012;2023-04-25T15:01:52;95293.91;;;7.68;50.03
76374;BME280;65197;50.164;8.012;2023-04-25T15:04:18;95305.78;;;7.45;51.43
76374;BME280;65197;50.164;8.012;2023-04-25T15:06:43;95298.88;;;7.49;53.31
76374;BME280;65197;50.164;8.012;2023-04-25T15:09:09;95298.72;;;7.74;52.67
76374;BME280;65197;50.164;8.012;2023-04-25T15:11:36;95298.22;;;7.86;52.29
76374;BME280;65197;50.164;8.012;2023-04-25T15:14:01;95288.94;;;7.64;51.39
76374;BME280;65197;50.164;8.012;2023-04-25T15:16:27;95286.41;;;7.85;52.39
76374;BME280;65197;50.164;8.012;2023-04-25T15:18:52;95293.00;;;8.09;50.49
76374;BME280;65197;50.164;8.012;2023-04-25T15:21:18;95300.59;;;8.30;52.67
76374;BME280;65197;50.164;8.012;2023-04-25T15:23:43;95297.78;;;8.56;49.50
76374;BME280;65197;50.164;8.012;2023-04-25T15:26:09;95288.94;;;8.46;49.23
76374;BME280;65197;50.164;8.012;2023-04-25T15:28:34;95302.16;;;8.13;49.76
76374;BME280;65197;50.164;8.012;2023-04-25T15:31:00;95305.31;;;8.19;49.88
76374;BME280;65197;50.164;8.012;2023-04-25T15:33:25;95307.63;;;8.04;49.93
76374;BME280;65197;50.164;8.012;2023-04-25T15:35:51;95300.56;;;8.11;49.71
76374;BME280;65197;50.164;8.012;2023-04-25T15:38:16;95305.19;;;8.01;51.64
76374;BME280;65197;50.164;8.012;2023-04-25T15:40:41;95303.03;;;7.92;52.16
76374;BME280;65197;50.164;8.012;2023-04-25T15:43:07;95303.59;;;7.99;51.37
76374;BME280;65197;50.164;8.012;2023-04-25T15:45:39;95307.22;;;7.73;50.09
76374;BME280;65197;50.164;8.012;2023-04-25T15:48:05;95307.25;;;7.51;50.33
76374;BME280;65197;50.164;8.012;2023-04-25T15:50:31;95316.00;;;7.22;53.32
76374;BME280;65197;50.164;8.012;2023-04-25T15:52:57;95323.97;;;7.12;54.18
76374;BME280;65197;50.164;8.012;2023-04-25T15:55:22;95314.34;;;7.21;54.65
76374;BME280;65197;50.164;8.012;2023-04-25T15:57:50;95307.03;;;7.13;55.84
76374;BME280;65197;50.164;8.012;2023-04-25T16:00:16;95312.84;;;7.17;54.37
76374;BME280;65197;50.164;8.012;2023-04-25T16:02:44;95318.59;;;6.98;55.32
76374;BME280;65197;50.164;8.012;2023-04-25T16:05:10;95326.97;;;7.00;54.71
76374;BME280;65197;50.164;8.012;2023-04-25T16:07:37;95322.47;;;6.85;55.72
76374;BME280;65197;50.164;8.012;2023-04-25T16:10:03;95336.72;;;6.87;55.63
76374;BME280;65197;50.164;8.012;2023-04-25T16:12:29;95329.09;;;6.89;56.86
76374;BME280;65197;50.164;8.012;2023-04-25T16:14:55;95329.28;;;6.83;58.22
76374;BME280;65197;50.164;8.012;2023-04-25T16:17:24;95332.81;;;6.79;58.86
76374;BME280;65197;50.164;8.012;2023-04-25T16:19:50;95338.34;;;6.67;58.61
76374;BME280;65197;50.164;8.012;2023-04-25T16:22:16;95340.41;;;6.79;60.27
76374;BME280;65197;50.164;8.012;2023-04-25T16:24:42;95345.16;;;6.88;59.63
76374;BME280;65197;50.164;8.012;2023-04-25T16:27:08;95338.22;;;6.70;58.93
76374;BME280;65197;50.164;8.012;2023-04-25T16:29:33;95332.47;;;6.66;59.58
76374;BME280;65197;50.164;8.012;2023-04-25T16:31:59;95352.31;;;6.53;61.28
76374;BME280;65197;50.164;8.012;2023-04-25T16:34:24;95343.06;;;6.52;61.74
76374;BME280;65197;50.164;8.012;2023-04-25T16:36:52;95337.53;;;6.41;63.36
76374;BME280;65197;50.164;8.012;2023-04-25T16:39:18;95336.78;;;6.39;63.61
76374;BME280;65197;50.164;8.012;2023-04-25T16:41:43;95342.03;;;6.33;64.54
76374;BME280;65197;50.164;8.012;2023-04-25T16:44:08;95348.81;;;6.32;62.88
76374;BME280;65197;50.164;8.012;2023-04-25T16:46:34;95349.88;;;6.27;65.80
76374;BME280;65197;50.164;8.012;2023-04-25T16:49:00;95336.44;;;6.25;65.23
76374;BME280;65197;50.164;8.012;2023-04-25T16:51:25;95338.91;;;6.26;64.01
76374;BME280;65197;50.164;8.012;2023-04-25T16:53:52;95334.66;;;6.27;64.84
76374;BME280;65197;50.164;8.012;2023-04-25T16:56:18;95345.94;;;6.18;63.91
76374;BME280;65197;50.164;8.012;2023-04-25T16:58:44;95340.88;;;6.18;64.96
76374;BME280;65197;50.164;8.012;2023-04-25T17:01:10;95327.47;;;6.15;65.59
76374;BME280;65197;50.164;8.012;2023-04-25T17:03:35;95355.44;;;6.36;64.44
76374;BME280;65197;50.164;8.012;2023-04-25T17:06:01;95348.16;;;6.52;64.97
76374;BME280;65197;50.164;8.012;2023-04-25T17:08:27;95352.56;;;6.71;61.63
76374;BME280;65197;50.164;8.012;2023-04-25T17:10:55;95349.91;;;6.74;63.21
76374;BME280;65197;50.164;8.012;2023-04-25T17:13:20;95356.19;;;6.87;60.60
76374;BME280;65197;50.164;8.012;2023-04-25T17:15:46;95357.06;;;6.62;59.85
76374;BME280;65197;50.164;8.012;2023-04-25T17:18:11;95357.81;;;6.41;59.11
76374;BME280;65197;50.164;8.012;2023-04-25T17:20:37;95366.91;;;6.22;59.49
76374;BME280;65197;50.164;8.012;2023-04-25T17:23:03;95358.75;;;6.13;58.78
76374;BME280;65197;50.164;8.012;2023-04-25T17:25:28;95374.44;;;5.98;58.60
76374;BME280;65197;50.164;8.012;2023-04-25T17:27:54;95375.25;;;5.72;58.63
76374;BME280;65197;50.164;8.012;2023-04-25T17:30:20;95383.41;;;5.54;59.97
76374;BME280;65197;50.164;8.012;2023-04-25T17:32:46;95382.97;;;5.41;59.22
76374;BME280;65197;50.164;8.012;2023-04-25T17:35:11;95391.69;;;5.31;60.39
76374;BME280;65197;50.164;8.012;2023-04-25T17:37:37;95383.81;;;5.14;59.66
76374;BME280;65197;50.164;8.012;2023-04-25T17:40:05;95389.22;;;5.01;59.48
76374;BME280;65197;50.164;8.012;2023-04-25T17:42:35;95398.00;;;4.88;61.66
76374;BME280;65197;50.164;8.012;2023-04-25T17:45:00;95394.84;;;4.80;61.32
76374;BME280;65197;50.164;8.012;2023-04-25T17:47:26;95390.16;;;4.68;63.44
76374;BME280;65197;50.164;8.012;2023-04-25T17:49:51;95392.69;;;4.68;62.34
76374;BME280;65197;50.164;8.012;2023-04-25T17:52:17;95406.88;;;4.72;63.11
76374;BME280;65197;50.164;8.012;2023-04-25T17:54:42;95403.00;;;4.60;63.76
76374;BME280;65197;50.164;8.012;2023-04-25T17:57:07;95389.13;;;4.44;65.28
76374;BME280;65197;50.164;8.012;2023-04-25T17:59:33;95400.81;;;4.46;65.24
76374;BME280;65197;50.164;8.012;2023-04-25T18:01:59;95399.25;;;4.42;65.73
76374;BME280;65197;50.164;8.012;2023-04-25T18:04:25;95405.94;;;4.43;64.32
76374;BME280;65197;50.164;8.012;2023-04-25T18:06:50;95396.09;;;4.34;65.46
76374;BME280;65197;50.164;8.012;2023-04-25T18:09:16;95407.63;;;4.44;65.92
76374;BME280;65197;50.164;8.012;2023-04-25T18:11:45;95415.22;;;4.43;66.36
76374;BME280;65197;50.164;8.012;2023-04-25T18:14:11;95416.81;;;4.47;66.96
76374;BME280;65197;50.164;8.012;2023-04-25T18:16:44;95417.97;;;4.35;67.38
76374;BME280;65197;50.164;8.012;2023-04-25T18:19:10;95423.16;;;4.29;67.59
76374;BME280;65197;50.164;8.012;2023-04-25T18:21:42;95428.19;;;4.29;69.00
76374;BME280;65197;50.164;8.012;2023-04-25T18:24:07;95410.88;;;4.15;68.22
76374;BME280;65197;50.164;8.012;2023-04-25T18:26:42;95435.38;;;4.12;69.13
76374;BME280;65197;50.164;8.012;2023-04-25T18:29:08;95435.72;;;3.96;69.34
76374;BME280;65197;50.164;8.012;2023-04-25T18:31:34;95431.06;;;3.81;69.96
76374;BME280;65197;50.164;8.012;2023-04-25T18:34:00;95420.44;;;3.68;73.20
76374;BME280;65197;50.164;8.012;2023-04-25T18:36:26;95429.53;;;3.74;72.39
76374;BME280;65197;50.164;8.012;2023-04-25T18:38:53;95423.25;;;3.54;72.69
76374;BME280;65197;50.164;8.012;2023-04-25T18:41:23;95440.03;;;3.55;74.67
76374;BME280;65197;50.164;8.012;2023-04-25T18:43:52;95440.25;;;3.46;74.36
76374;BME280;65197;50.164;8.012;2023-04-25T18:46:18;95441.97;;;3.44;74.74
76374;BME280;65197;50.164;8.012;2023-04-25T18:48:50;95453.81;;;3.42;74.88
76374;BME280;65197;50.164;8.012;2023-04-25T18:51:16;95457.31;;;3.35;75.55
76374;BME280;65197;50.164;8.012;2023-04-25T18:53:42;95460.56;;;3.40;76.59
76374;BME280;65197;50.164;8.012;2023-04-25T18:56:08;95455.69;;;3.31;76.58
76374;BME280;65197;50.164;8.012;2023-04-25T18:58:33;95463.34;;;3.26;78.48
76374;BME280;65197;50.164;8.012;2023-04-25T19:00:59;95464.31;;;3.21;78.66
76374;BME280;65197;50.164;8.012;2023-04-25T19:03:26;95471.06;;;3.19;77.42
76374;BME280;65197;50.164;8.012;2023-04-25T19:05:51;95480.31;;;3.20;78.96
76374;BME280;65197;50.164;8.012;2023-04-25T19:08:17;95485.44;;;3.15;79.52
76374;BME280;65197;50.164;8.012;2023-04-25T19:10:43;95471.44;;;3.00;79.02
76374;BME280;65197;50.164;8.012;2023-04-25T19:13:08;95479.81;;;3.02;79.25
76374;BME280;65197;50.164;8.012;2023-04-25T19:15:34;95469.91;;;2.93;79.77
76374;BME280;65197;50.164;8.012;2023-04-25T19:17:59;95484.91;;;2.99;80.56
76374;BME280;65197;50.164;8.012;2023-04-25T19:20:25;95492.38;;;3.04;80.70
76374;BME280;65197;50.164;8.012;2023-04-25T19:22:51;95486.38;;;3.10;80.25
76374;BME280;65197;50.164;8.012;2023-04-25T19:25:17;95489.03;;;3.03;81.47
76374;BME280;65197;50.164;8.012;2023-04-25T19:27:42;95483.38;;;2.92;81.30
76374;BME280;65197;50.164;8.012;2023-04-25T19:30:09;95493.38;;;2.95;82.44
76374;BME280;65197;50.164;8.012;2023-04-25T19:32:35;95486.97;;;2.79;82.44
76374;BME280;65197;50.164;8.012;2023-04-25T19:35:01;95492.13;;;2.73;83.51
76374;BME280;65197;50.164;8.012;2023-04-25T19:37:28;95497.16;;;2.73;83.31
76374;BME280;65197;50.164;8.012;2023-04-25T19:39:54;95489.75;;;2.65;84.01
76374;BME280;65197;50.164;8.012;2023-04-25T19:42:19;95497.41;;;2.59;83.77
76374;BME280;65197;50.164;8.012;2023-04-25T19:44:44;95494.03;;;2.59;85.59
76374;BME280;65197;50.164;8.012;2023-04-25T19:47:10;95489.16;;;2.49;86.09
76374;BME280;65197;50.164;8.012;2023-04-25T19:49:36;95493.25;;;2.57;86.61
76374;BME280;65197;50.164;8.012;2023-04-25T19:52:02;95490.16;;;2.42;86.68
76374;BME280;65197;50.164;8.012;2023-04-25T19:54:29;95494.47;;;2.34;86.63
76374;BME280;65197;50.164;8.012;2023-04-25T19:56:55;95493.75;;;2.27;85.82
76374;BME280;65197;50.164;8.012;2023-04-25T19:59:20;95497.88;;;2.32;85.92
76374;BME280;65197;50.164;8.012;2023-04-25T20:01:45;95505.66;;;2.18;85.79
76374;BME280;65197;50.164;8.012;2023-04-25T20:04:11;95506.34;;;2.26;86.96
76374;BME280;65197;50.164;8.012;2023-04-25T20:06:36;95499.72;;;2.22;86.82
76374;BME280;65197;50.164;8.012;2023-04-25T20:09:02;95505.47;;;2.28;84.28
76374;BME280;65197;50.164;8.012;2023-04-25T20:11:28;95504.50;;;2.37;83.36
76374;BME280;65197;50.164;8.012;2023-04-25T20:13:53;95498.41;;;2.50;80.48
76374;BME280;65197;50.164;8.012;2023-04-25T20:16:19;95519.13;;;2.65;80.94
76374;BME280;65197;50.164;8.012;2023-04-25T20:18:46;95510.63;;;2.70;80.75
76374;BME280;65197;50.164;8.012;2023-04-25T20:21:12;95511.53;;;2.66;81.16
76374;BME280;65197;50.164;8.012;2023-04-25T20:23:38;95517.34;;;2.70;82.24
76374;BME280;65197;50.164;8.012;2023-04-25T20:26:04;95515.59;;;2.75;81.05
76374;BME280;65197;50.164;8.012;2023-04-25T20:28:30;95520.50;;;2.81;79.21
76374;BME280;65197;50.164;8.012;2023-04-25T20:30:56;95512.88;;;2.86;79.66
76374;BME280;65197;50.164;8.012;2023-04-25T20:33:21;95514.47;;;2.91;79.47
76374;BME280;65197;50.164;8.012;2023-04-25T20:35:47;95532.75;;;3.01;80.04
76374;BME280;65197;50.164;8.012;2023-04-25T20:38:13;95521.91;;;2.97;80.58
76374;BME280;65197;50.164;8.012;2023-04-25T20:40:38;95521.81;;;3.00;80.25
76374;BME280;65197;50.164;8.012;2023-04-25T20:43:04;95512.66;;;2.98;81.69
76374;BME280;65197;50.164;8.012;2023-04-25T20:45:30;95513.41;;;3.01;80.65
76374;BME280;65197;50.164;8.012;2023-04-25T20:47:57;95510.16;;;2.96;80.33
76374;BME280;65197;50.164;8.012;2023-04-25T20:50:23;95518.47;;;3.01;80.21
76374;BME280;65197;50.164;8.012;2023-04-25T20:52:49;95521.91;;;2.97;79.79
76374;BME280;65197;50.164;8.012;2023-04-25T20:55:15;95520.34;;;2.90;80.64
76374;BME280;65197;50.164;8.012;2023-04-25T21:01:02;95515.78;;;2.63;82.81
76374;BME280;65197;50.164;8.012;2023-04-25T21:03:28;95511.91;;;2.46;83.21
76374;BME280;65197;50.164;8.012;2023-04-25T21:05:54;95511.44;;;2.23;84.78
76374;BME280;65197;50.164;8.012;2023-04-25T21:08:19;95531.53;;;2.24;85.67
76374;BME280;65197;50.164;8.012;2023-04-25T21:10:45;95520.81;;;2.13;86.59
76374;BME280;65197;50.164;8.012;2023-04-25T21:13:10;95519.31;;;2.01;87.13
76374;BME280;65197;50.164;8.012;2023-04-25T21:15:36;95521.09;;;1.95;88.63
76374;BME280;65197;50.164;8.012;2023-04-25T21:18:02;95520.19;;;2.00;88.56
76374;BME280;65197;50.164;8.012;2023-04-25T21:20:27;95514.41;;;1.92;89.52
76374;BME280;65197;50.164;8.012;2023-04-25T21:22:53;95533.63;;;1.99;89.39
76374;BME280;65197;50.164;8.012;2023-04-25T21:25:23;95531.09;;;1.99;89.54
76374;BME280;65197;50.164;8.012;2023-04-25T21:27:53;95517.69;;;1.97;89.83
76374;BME280;65197;50.164;8.012;2023-04-25T21:30:20;95522.69;;;2.00;90.60
76374;BME280;65197;50.164;8.012;2023-04-25T21:32:46;95518.66;;;1.90;91.06
76374;BME280;65197;50.164;8.012;2023-04-25T21:35:13;95521.88;;;1.98;91.29
76374;BME280;65197;50.164;8.012;2023-04-25T21:37:39;95502.03;;;1.80;91.17
76374;BME280;65197;50.164;8.012;2023-04-25T21:40:06;95517.69;;;1.97;90.95
76374;BME280;65197;50.164;8.012;2023-04-25T21:42:32;95522.06;;;1.86;92.00
76374;BME280;65197;50.164;8.012;2023-04-25T21:44:58;95513.75;;;1.81;91.79
76374;BME280;65197;50.164;8.012;2023-04-25T21:47:23;95523.75;;;1.84;92.33
76374;BME280;65197;50.164;8.012;2023-04-25T21:49:49;95521.38;;;1.75;92.52
76374;BME280;65197;50.164;8.012;2023-04-25T21:52:15;95527.22;;;1.77;92.54
76374;BME280;65197;50.164;8.012;2023-04-25T21:54:40;95529.88;;;1.68;92.49
76374;BME280;65197;50.164;8.012;2023-04-25T21:57:06;95528.22;;;1.67;92.99
76374;BME280;65197;50.164;8.012;2023-04-25T21:59:31;95537.44;;;1.65;93.60
76374;BME280;65197;50.164;8.012;2023-04-25T22:01:57;95551.72;;;1.63;94.03
76374;BME280;65197;50.164;8.012;2023-04-25T22:04:22;95545.88;;;1.61;93.88
76374;BME280;65197;50.164;8.012;2023-04-25T22:06:48;95550.91;;;1.61;94.35
76374;BME280;65197;50.164;8.012;2023-04-25T22:09:13;95537.69;;;1.46;94.03
76374;BME280;65197;50.164;8.012;2023-04-25T22:11:39;95546.88;;;1.47;95.14
76374;BME280;65197;50.164;8.012;2023-04-25T22:14:05;95555.91;;;1.61;95.42